Flight Track Log - Related Links

Times and Time Zones

All times are in EDT time to prevent confusion due to time zone crossing. See the N6198F flight status page for this flight to view local times or setup timezone preferences in your user account.

Time Position Orientation Groundspeed Altitude Reporting Facility
EDT Latitude Longitude Course Direction KTS MPH feet Rate Location/Type
Sat 01:39:00 PM 34.4806 -86.6121 139° Southeast  Level Estimated
Sat 01:40:00 PM 34.4545 -86.5850 139° Southeast  Level Estimated
Sat 01:41:00 PM 34.4283 -86.5579 139° Southeast  Level Estimated
Sat 01:42:00 PM 34.4022 -86.5308 139° Southeast  Level Estimated
Sat 01:43:00 PM 34.3761 -86.5037 139° Southeast  Level Estimated
Sat 01:44:00 PM 34.3499 -86.4767 140° Southeast  Level Estimated
Sat 01:45:00 PM 34.3238 -86.4497 140° Southeast  Level Estimated
Sat 01:46:00 PM 34.2976 -86.4227 140° Southeast  Level Estimated
Sat 01:47:00 PM 34.2715 -86.3957 140° Southeast  Level Estimated
Sat 01:48:00 PM 34.2453 -86.3687 140° Southeast  Level Estimated
Sat 01:49:00 PM 34.2191 -86.3418 140° Southeast  Level Estimated
Sat 01:50:00 PM 34.1929 -86.3148 140° Southeast  Level Estimated
Sat 01:51:00 PM 34.1667 -86.2879 140° Southeast  Level Estimated
Sat 01:52:00 PM 34.1405 -86.2610 140° Southeast  Level Estimated
Sat 01:53:00 PM 34.1143 -86.2341 140° Southeast  Level Estimated
Sat 01:54:00 PM 34.0881 -86.2072 140° Southeast  Level Estimated
Sat 01:55:00 PM 34.0619 -86.1804 140° Southeast  Level Estimated
Sat 01:56:00 PM 34.0357 -86.1535 140° Southeast  Level Estimated
Sat 01:57:00 PM 34.0095 -86.1267 140° Southeast  Level Estimated
Sat 01:58:00 PM 33.9832 -86.0999 140° Southeast  Level Estimated
Sat 01:59:00 PM 33.9726 -86.0891 140° Southeast  Level Estimated
Sat 02:00:00 PM 33.9726 -86.0891 249° West  Level Estimated
Sat 02:01:00 PM 33.9726 -86.0891 249° West  Level Estimated
Sat 02:02:00 PM 33.9726 -86.0891 249° West  Level Estimated
Sat 02:03:00 PM 33.9726 -86.0891 249° West  Level Estimated
Sat 02:04:00 PM 33.9726 -86.0891 249° West  Level Estimated
Sat 02:05:00 PM 33.9726 -86.0891 249° West  Level Estimated
Sat 02:06:00 PM 33.9726 -86.0891 249° West  Level Estimated
Sat 02:07:00 PM 33.9726 -86.0891 249° West  Level Estimated
Sat 02:08:00 PM 33.9726 -86.0891 249° West  Level Estimated
Sat 02:09:00 PM 33.9726 -86.0891 249° West  Level Estimated
Sat 02:10:00 PM 33.9726 -86.0891 249° West  Level Estimated
Sat 02:11:00 PM 33.9726 -86.0891 249° West  Level Estimated
Sat 02:12:00 PM 33.9726 -86.0891 249° West  Level Estimated
Sat 02:13:00 PM 33.9726 -86.0891 249° West  Level Estimated
Sat 02:14:00 PM 33.9726 -86.0891 249° West  Level Estimated

Login

Don't have an account? Register now (free) for customized features, flight alerts, and more!